sensor_id;sensor_type;location;lat;lon;timestamp;P1;durP1;ratioP1;P2;durP2;ratioP2
21010;SDS011;10663;42.714;23.274;2023-06-05T00:01:01;15.13;;;13.73;;
21010;SDS011;10663;42.714;23.274;2023-06-05T00:02:33;16.70;;;14.30;;
21010;SDS011;10663;42.714;23.274;2023-06-05T00:04:04;14.48;;;12.98;;
21010;SDS011;10663;42.714;23.274;2023-06-05T00:05:34;14.43;;;13.02;;
21010;SDS011;10663;42.714;23.274;2023-06-05T00:07:06;15.15;;;13.55;;
21010;SDS011;10663;42.714;23.274;2023-06-05T00:08:37;15.30;;;13.73;;
21010;SDS011;10663;42.714;23.274;2023-06-05T00:10:08;16.15;;;14.50;;
21010;SDS011;10663;42.714;23.274;2023-06-05T00:11:39;16.00;;;14.23;;
21010;SDS011;10663;42.714;23.274;2023-06-05T00:13:10;16.63;;;14.07;;
21010;SDS011;10663;42.714;23.274;2023-06-05T00:14:42;16.63;;;14.82;;
21010;SDS011;10663;42.714;23.274;2023-06-05T00:16:13;18.48;;;15.73;;
21010;SDS011;10663;42.714;23.274;2023-06-05T00:17:45;19.10;;;15.82;;
21010;SDS011;10663;42.714;23.274;2023-06-05T00:19:16;17.45;;;15.75;;
21010;SDS011;10663;42.714;23.274;2023-06-05T00:20:46;18.17;;;16.27;;
21010;SDS011;10663;42.714;23.274;2023-06-05T00:22:17;17.40;;;15.40;;
21010;SDS011;10663;42.714;23.274;2023-06-05T00:23:48;21.90;;;16.85;;
21010;SDS011;10663;42.714;23.274;2023-06-05T00:25:19;20.13;;;16.52;;
21010;SDS011;10663;42.714;23.274;2023-06-05T00:26:50;19.45;;;17.10;;
21010;SDS011;10663;42.714;23.274;2023-06-05T00:28:21;19.15;;;17.05;;
21010;SDS011;10663;42.714;23.274;2023-06-05T00:29:52;19.52;;;17.17;;
21010;SDS011;10663;42.714;23.274;2023-06-05T00:31:24;20.20;;;17.10;;
21010;SDS011;10663;42.714;23.274;2023-06-05T00:32:57;18.55;;;16.65;;
21010;SDS011;10663;42.714;23.274;2023-06-05T00:34:28;19.13;;;16.30;;
21010;SDS011;10663;42.714;23.274;2023-06-05T00:35:59;21.47;;;17.30;;
21010;SDS011;10663;42.714;23.274;2023-06-05T00:37:29;19.90;;;15.60;;
21010;SDS011;10663;42.714;23.274;2023-06-05T00:39:00;19.17;;;15.15;;
21010;SDS011;10663;42.714;23.274;2023-06-05T00:40:31;18.90;;;15.88;;
21010;SDS011;10663;42.714;23.274;2023-06-05T00:42:03;15.60;;;13.98;;
21010;SDS011;10663;42.714;23.274;2023-06-05T00:43:34;15.98;;;13.25;;
21010;SDS011;10663;42.714;23.274;2023-06-05T00:45:06;14.40;;;12.88;;
21010;SDS011;10663;42.714;23.274;2023-06-05T00:46:38;18.17;;;14.85;;
21010;SDS011;10663;42.714;23.274;2023-06-05T00:48:09;16.63;;;14.93;;
21010;SDS011;10663;42.714;23.274;2023-06-05T00:49:42;17.53;;;14.83;;
21010;SDS011;10663;42.714;23.274;2023-06-05T00:51:13;17.17;;;14.60;;
21010;SDS011;10663;42.714;23.274;2023-06-05T00:52:46;16.40;;;14.70;;
21010;SDS011;10663;42.714;23.274;2023-06-05T00:54:17;20.02;;;16.10;;
21010;SDS011;10663;42.714;23.274;2023-06-05T00:55:48;16.77;;;14.88;;
21010;SDS011;10663;42.714;23.274;2023-06-05T00:57:20;17.50;;;15.60;;
21010;SDS011;10663;42.714;23.274;2023-06-05T00:58:54;20.90;;;16.70;;
21010;SDS011;10663;42.714;23.274;2023-06-05T01:00:28;18.70;;;16.75;;
21010;SDS011;10663;42.714;23.274;2023-06-05T01:01:59;19.97;;;16.90;;
21010;SDS011;10663;42.714;23.274;2023-06-05T01:03:32;20.85;;;16.80;;
21010;SDS011;10663;42.714;23.274;2023-06-05T01:05:05;21.05;;;17.92;;
21010;SDS011;10663;42.714;23.274;2023-06-05T01:06:36;23.47;;;18.90;;
21010;SDS011;10663;42.714;23.274;2023-06-05T01:08:11;22.05;;;18.35;;
21010;SDS011;10663;42.714;23.274;2023-06-05T01:09:44;21.37;;;17.53;;
21010;SDS011;10663;42.714;23.274;2023-06-05T01:11:58;21.90;;;18.60;;
21010;SDS011;10663;42.714;23.274;2023-06-05T01:14:56;24.77;;;20.38;;
21010;SDS011;10663;42.714;23.274;2023-06-05T01:16:29;22.33;;;17.80;;
21010;SDS011;10663;42.714;23.274;2023-06-05T01:18:03;25.00;;;20.23;;
21010;SDS011;10663;42.714;23.274;2023-06-05T01:19:35;20.40;;;17.25;;
21010;SDS011;10663;42.714;23.274;2023-06-05T01:21:12;17.65;;;15.75;;
21010;SDS011;10663;42.714;23.274;2023-06-05T01:22:47;19.98;;;16.67;;
21010;SDS011;10663;42.714;23.274;2023-06-05T01:24:22;19.58;;;16.73;;
21010;SDS011;10663;42.714;23.274;2023-06-05T01:25:56;17.35;;;15.02;;
21010;SDS011;10663;42.714;23.274;2023-06-05T01:27:49;18.20;;;14.70;;
21010;SDS011;10663;42.714;23.274;2023-06-05T01:29:34;17.63;;;14.07;;
21010;SDS011;10663;42.714;23.274;2023-06-05T01:31:08;16.27;;;14.18;;
21010;SDS011;10663;42.714;23.274;2023-06-05T01:34:23;17.92;;;15.13;;
21010;SDS011;10663;42.714;23.274;2023-06-05T01:35:57;18.02;;;15.82;;
21010;SDS011;10663;42.714;23.274;2023-06-05T01:37:36;18.27;;;16.23;;
21010;SDS011;10663;42.714;23.274;2023-06-05T01:39:12;19.25;;;16.85;;
21010;SDS011;10663;42.714;23.274;2023-06-05T01:40:44;19.02;;;16.10;;
21010;SDS011;10663;42.714;23.274;2023-06-05T01:42:17;19.98;;;16.80;;
21010;SDS011;10663;42.714;23.274;2023-06-05T01:43:48;19.08;;;16.33;;
21010;SDS011;10663;42.714;23.274;2023-06-05T01:45:20;18.55;;;16.48;;
21010;SDS011;10663;42.714;23.274;2023-06-05T01:46:51;17.65;;;15.80;;
21010;SDS011;10663;42.714;23.274;2023-06-05T01:48:23;19.02;;;17.02;;
21010;SDS011;10663;42.714;23.274;2023-06-05T01:49:58;21.60;;;16.90;;
21010;SDS011;10663;42.714;23.274;2023-06-05T01:51:28;19.23;;;16.83;;
21010;SDS011;10663;42.714;23.274;2023-06-05T01:53:00;19.27;;;15.73;;
21010;SDS011;10663;42.714;23.274;2023-06-05T01:54:32;19.08;;;15.90;;
21010;SDS011;10663;42.714;23.274;2023-06-05T01:56:04;17.70;;;15.80;;
21010;SDS011;10663;42.714;23.274;2023-06-05T01:57:37;18.55;;;16.33;;
21010;SDS011;10663;42.714;23.274;2023-06-05T01:59:08;19.93;;;16.07;;
21010;SDS011;10663;42.714;23.274;2023-06-05T02:00:39;18.13;;;15.47;;
21010;SDS011;10663;42.714;23.274;2023-06-05T02:02:10;18.10;;;15.00;;
21010;SDS011;10663;42.714;23.274;2023-06-05T02:03:42;17.20;;;15.40;;
21010;SDS011;10663;42.714;23.274;2023-06-05T02:05:18;17.63;;;15.40;;
21010;SDS011;10663;42.714;23.274;2023-06-05T02:06:52;20.27;;;16.20;;
21010;SDS011;10663;42.714;23.274;2023-06-05T02:08:23;19.40;;;16.55;;
21010;SDS011;10663;42.714;23.274;2023-06-05T02:09:55;20.27;;;17.13;;
21010;SDS011;10663;42.714;23.274;2023-06-05T02:11:33;19.70;;;17.38;;
21010;SDS011;10663;42.714;23.274;2023-06-05T02:13:04;18.65;;;16.20;;
21010;SDS011;10663;42.714;23.274;2023-06-05T02:14:35;18.13;;;16.23;;
21010;SDS011;10663;42.714;23.274;2023-06-05T02:16:09;20.70;;;16.85;;
21010;SDS011;10663;42.714;23.274;2023-06-05T02:17:42;19.73;;;17.50;;
21010;SDS011;10663;42.714;23.274;2023-06-05T02:19:15;20.95;;;18.13;;
21010;SDS011;10663;42.714;23.274;2023-06-05T02:20:52;22.70;;;18.02;;
21010;SDS011;10663;42.714;23.274;2023-06-05T02:22:24;20.20;;;16.73;;
21010;SDS011;10663;42.714;23.274;2023-06-05T02:23:55;20.63;;;17.45;;
21010;SDS011;10663;42.714;23.274;2023-06-05T02:25:28;20.92;;;18.75;;
21010;SDS011;10663;42.714;23.274;2023-06-05T02:27:00;22.23;;;18.83;;
21010;SDS011;10663;42.714;23.274;2023-06-05T02:28:31;23.40;;;18.42;;
21010;SDS011;10663;42.714;23.274;2023-06-05T02:30:03;21.15;;;18.80;;
21010;SDS011;10663;42.714;23.274;2023-06-05T02:31:35;24.55;;;20.33;;
21010;SDS011;10663;42.714;23.274;2023-06-05T02:33:07;21.85;;;18.67;;
21010;SDS011;10663;42.714;23.274;2023-06-05T02:34:39;20.13;;;18.03;;
21010;SDS011;10663;42.714;23.274;2023-06-05T02:36:10;21.60;;;17.73;;
21010;SDS011;10663;42.714;23.274;2023-06-05T02:37:46;22.80;;;18.73;;
21010;SDS011;10663;42.714;23.274;2023-06-05T02:39:17;21.30;;;18.08;;
21010;SDS011;10663;42.714;23.274;2023-06-05T02:40:48;21.52;;;18.05;;
21010;SDS011;10663;42.714;23.274;2023-06-05T02:42:19;21.90;;;17.80;;
21010;SDS011;10663;42.714;23.274;2023-06-05T02:43:50;20.97;;;18.13;;
21010;SDS011;10663;42.714;23.274;2023-06-05T02:45:22;20.50;;;18.25;;
21010;SDS011;10663;42.714;23.274;2023-06-05T02:46:53;19.85;;;17.67;;
21010;SDS011;10663;42.714;23.274;2023-06-05T02:48:24;20.05;;;17.70;;
21010;SDS011;10663;42.714;23.274;2023-06-05T02:50:00;23.75;;;18.90;;
21010;SDS011;10663;42.714;23.274;2023-06-05T02:51:35;20.53;;;17.27;;
21010;SDS011;10663;42.714;23.274;2023-06-05T02:53:08;20.15;;;16.80;;
21010;SDS011;10663;42.714;23.274;2023-06-05T02:54:40;17.27;;;15.40;;
21010;SDS011;10663;42.714;23.274;2023-06-05T02:56:13;18.20;;;14.88;;
21010;SDS011;10663;42.714;23.274;2023-06-05T02:57:44;17.25;;;14.40;;
21010;SDS011;10663;42.714;23.274;2023-06-05T02:59:23;20.00;;;16.42;;
21010;SDS011;10663;42.714;23.274;2023-06-05T03:00:56;19.05;;;15.77;;
21010;SDS011;10663;42.714;23.274;2023-06-05T03:02:33;20.37;;;16.30;;
21010;SDS011;10663;42.714;23.274;2023-06-05T03:04:07;18.42;;;16.30;;
21010;SDS011;10663;42.714;23.274;2023-06-05T03:05:40;20.08;;;16.70;;
21010;SDS011;10663;42.714;23.274;2023-06-05T03:07:15;17.38;;;14.02;;
21010;SDS011;10663;42.714;23.274;2023-06-05T03:08:48;16.92;;;13.77;;
21010;SDS011;10663;42.714;23.274;2023-06-05T03:10:23;18.90;;;14.57;;
21010;SDS011;10663;42.714;23.274;2023-06-05T03:11:55;17.47;;;14.57;;
21010;SDS011;10663;42.714;23.274;2023-06-05T03:13:28;18.48;;;14.27;;
21010;SDS011;10663;42.714;23.274;2023-06-05T03:14:59;17.95;;;13.95;;
21010;SDS011;10663;42.714;23.274;2023-06-05T03:16:31;19.13;;;15.93;;
21010;SDS011;10663;42.714;23.274;2023-06-05T03:18:12;18.92;;;15.48;;
21010;SDS011;10663;42.714;23.274;2023-06-05T03:19:43;20.02;;;15.30;;
21010;SDS011;10663;42.714;23.274;2023-06-05T03:21:15;20.50;;;15.23;;
21010;SDS011;10663;42.714;23.274;2023-06-05T03:22:46;21.92;;;16.40;;
21010;SDS011;10663;42.714;23.274;2023-06-05T03:24:17;20.33;;;16.98;;
21010;SDS011;10663;42.714;23.274;2023-06-05T03:25:54;20.33;;;17.08;;
21010;SDS011;10663;42.714;23.274;2023-06-05T03:27:26;19.05;;;16.38;;
21010;SDS011;10663;42.714;23.274;2023-06-05T03:28:58;20.20;;;16.77;;
21010;SDS011;10663;42.714;23.274;2023-06-05T03:30:30;18.52;;;16.52;;
21010;SDS011;10663;42.714;23.274;2023-06-05T03:32:04;21.38;;;16.88;;
21010;SDS011;10663;42.714;23.274;2023-06-05T03:33:37;21.83;;;18.65;;
21010;SDS011;10663;42.714;23.274;2023-06-05T03:35:08;22.90;;;17.40;;
21010;SDS011;10663;42.714;23.274;2023-06-05T03:36:40;21.90;;;19.58;;
21010;SDS011;10663;42.714;23.274;2023-06-05T03:38:14;22.90;;;19.92;;
21010;SDS011;10663;42.714;23.274;2023-06-05T03:39:45;21.58;;;19.27;;
21010;SDS011;10663;42.714;23.274;2023-06-05T03:41:16;21.33;;;18.30;;
21010;SDS011;10663;42.714;23.274;2023-06-05T03:42:47;22.65;;;17.80;;
21010;SDS011;10663;42.714;23.274;2023-06-05T03:44:17;19.83;;;17.73;;
21010;SDS011;10663;42.714;23.274;2023-06-05T03:45:49;22.60;;;18.58;;
21010;SDS011;10663;42.714;23.274;2023-06-05T03:47:20;22.20;;;18.20;;
21010;SDS011;10663;42.714;23.274;2023-06-05T03:48:52;19.73;;;16.25;;
21010;SDS011;10663;42.714;23.274;2023-06-05T03:50:30;20.42;;;16.65;;
21010;SDS011;10663;42.714;23.274;2023-06-05T03:52:02;20.23;;;15.73;;
21010;SDS011;10663;42.714;23.274;2023-06-05T03:53:34;19.98;;;16.10;;
21010;SDS011;10663;42.714;23.274;2023-06-05T03:55:06;19.05;;;16.08;;
21010;SDS011;10663;42.714;23.274;2023-06-05T03:56:41;19.55;;;15.77;;
21010;SDS011;10663;42.714;23.274;2023-06-05T03:58:19;19.23;;;15.52;;
21010;SDS011;10663;42.714;23.274;2023-06-05T03:59:53;20.58;;;16.98;;
21010;SDS011;10663;42.714;23.274;2023-06-05T04:01:24;19.85;;;16.45;;
21010;SDS011;10663;42.714;23.274;2023-06-05T04:02:56;21.10;;;15.18;;
21010;SDS011;10663;42.714;23.274;2023-06-05T04:04:28;18.27;;;15.93;;
21010;SDS011;10663;42.714;23.274;2023-06-05T04:05:59;19.17;;;15.90;;
21010;SDS011;10663;42.714;23.274;2023-06-05T04:07:31;18.50;;;16.15;;
21010;SDS011;10663;42.714;23.274;2023-06-05T04:09:02;17.13;;;15.32;;
21010;SDS011;10663;42.714;23.274;2023-06-05T04:10:46;19.55;;;16.90;;
21010;SDS011;10663;42.714;23.274;2023-06-05T04:12:16;22.05;;;17.30;;
21010;SDS011;10663;42.714;23.274;2023-06-05T04:13:50;18.25;;;16.27;;
21010;SDS011;10663;42.714;23.274;2023-06-05T04:15:25;19.48;;;16.45;;
21010;SDS011;10663;42.714;23.274;2023-06-05T04:16:57;19.63;;;16.33;;
21010;SDS011;10663;42.714;23.274;2023-06-05T04:18:29;18.67;;;16.70;;
21010;SDS011;10663;42.714;23.274;2023-06-05T04:20:00;19.93;;;16.03;;
21010;SDS011;10663;42.714;23.274;2023-06-05T04:21:33;18.77;;;15.82;;
21010;SDS011;10663;42.714;23.274;2023-06-05T04:23:08;21.35;;;17.08;;
21010;SDS011;10663;42.714;23.274;2023-06-05T04:24:42;20.98;;;16.33;;
21010;SDS011;10663;42.714;23.274;2023-06-05T04:26:13;20.88;;;15.93;;
21010;SDS011;10663;42.714;23.274;2023-06-05T04:27:47;21.60;;;16.05;;
21010;SDS011;10663;42.714;23.274;2023-06-05T04:29:21;19.70;;;16.88;;
21010;SDS011;10663;42.714;23.274;2023-06-05T04:30:52;17.50;;;15.48;;
21010;SDS011;10663;42.714;23.274;2023-06-05T04:32:23;22.10;;;17.17;;
21010;SDS011;10663;42.714;23.274;2023-06-05T04:33:54;22.90;;;17.00;;
21010;SDS011;10663;42.714;23.274;2023-06-05T04:35:25;21.92;;;17.90;;
21010;SDS011;10663;42.714;23.274;2023-06-05T04:36:57;21.67;;;17.10;;
21010;SDS011;10663;42.714;23.274;2023-06-05T04:38:28;19.63;;;17.00;;
21010;SDS011;10663;42.714;23.274;2023-06-05T04:39:59;21.27;;;17.52;;
21010;SDS011;10663;42.714;23.274;2023-06-05T04:41:30;22.00;;;17.15;;
21010;SDS011;10663;42.714;23.274;2023-06-05T04:43:04;24.13;;;19.75;;
21010;SDS011;10663;42.714;23.274;2023-06-05T04:44:35;21.73;;;16.92;;
21010;SDS011;10663;42.714;23.274;2023-06-05T04:46:08;24.98;;;19.00;;
21010;SDS011;10663;42.714;23.274;2023-06-05T04:47:39;66.40;;;42.60;;
21010;SDS011;10663;42.714;23.274;2023-06-05T04:49:10;91.80;;;60.72;;
21010;SDS011;10663;42.714;23.274;2023-06-05T04:50:42;32.47;;;23.88;;
21010;SDS011;10663;42.714;23.274;2023-06-05T04:52:15;82.13;;;52.47;;
21010;SDS011;10663;42.714;23.274;2023-06-05T04:53:47;40.45;;;29.20;;
21010;SDS011;10663;42.714;23.274;2023-06-05T04:55:21;46.45;;;34.08;;
21010;SDS011;10663;42.714;23.274;2023-06-05T04:56:56;33.23;;;24.07;;
21010;SDS011;10663;42.714;23.274;2023-06-05T04:58:27;35.73;;;28.07;;
21010;SDS011;10663;42.714;23.274;2023-06-05T04:59:58;36.83;;;27.80;;
21010;SDS011;10663;42.714;23.274;2023-06-05T05:01:30;51.75;;;36.42;;
21010;SDS011;10663;42.714;23.274;2023-06-05T05:03:02;37.53;;;28.83;;
21010;SDS011;10663;42.714;23.274;2023-06-05T05:04:34;40.22;;;29.10;;
21010;SDS011;10663;42.714;23.274;2023-06-05T05:06:05;49.95;;;35.95;;
21010;SDS011;10663;42.714;23.274;2023-06-05T05:07:36;42.20;;;29.23;;
21010;SDS011;10663;42.714;23.274;2023-06-05T05:09:07;39.38;;;28.60;;
21010;SDS011;10663;42.714;23.274;2023-06-05T05:10:39;32.78;;;25.40;;
21010;SDS011;10663;42.714;23.274;2023-06-05T05:12:12;26.23;;;20.83;;
21010;SDS011;10663;42.714;23.274;2023-06-05T05:13:43;27.47;;;22.37;;
21010;SDS011;10663;42.714;23.274;2023-06-05T05:15:14;31.30;;;23.27;;
21010;SDS011;10663;42.714;23.274;2023-06-05T05:16:45;29.20;;;23.15;;
21010;SDS011;10663;42.714;23.274;2023-06-05T05:18:17;32.90;;;23.90;;
21010;SDS011;10663;42.714;23.274;2023-06-05T05:19:48;30.30;;;22.02;;
21010;SDS011;10663;42.714;23.274;2023-06-05T05:21:19;34.33;;;23.50;;
21010;SDS011;10663;42.714;23.274;2023-06-05T05:22:51;28.00;;;21.10;;
21010;SDS011;10663;42.714;23.274;2023-06-05T05:24:22;30.25;;;22.70;;
21010;SDS011;10663;42.714;23.274;2023-06-05T05:25:54;29.15;;;21.48;;
21010;SDS011;10663;42.714;23.274;2023-06-05T05:27:25;28.55;;;22.50;;
21010;SDS011;10663;42.714;23.274;2023-06-05T05:28:56;32.22;;;25.75;;
21010;SDS011;10663;42.714;23.274;2023-06-05T05:30:27;34.65;;;23.02;;
21010;SDS011;10663;42.714;23.274;2023-06-05T05:32:03;30.42;;;22.25;;
21010;SDS011;10663;42.714;23.274;2023-06-05T05:33:35;23.33;;;20.80;;
21010;SDS011;10663;42.714;23.274;2023-06-05T05:35:07;28.85;;;19.90;;
21010;SDS011;10663;42.714;23.274;2023-06-05T05:36:39;26.42;;;22.33;;
21010;SDS011;10663;42.714;23.274;2023-06-05T05:38:10;25.33;;;20.55;;
21010;SDS011;10663;42.714;23.274;2023-06-05T05:39:41;24.80;;;21.00;;
21010;SDS011;10663;42.714;23.274;2023-06-05T05:41:12;21.48;;;18.40;;
21010;SDS011;10663;42.714;23.274;2023-06-05T05:42:43;24.20;;;18.88;;
21010;SDS011;10663;42.714;23.274;2023-06-05T05:44:15;23.23;;;20.23;;
21010;SDS011;10663;42.714;23.274;2023-06-05T05:45:46;20.67;;;18.25;;
21010;SDS011;10663;42.714;23.274;2023-06-05T05:47:16;21.87;;;18.87;;
21010;SDS011;10663;42.714;23.274;2023-06-05T05:48:48;26.52;;;19.70;;
21010;SDS011;10663;42.714;23.274;2023-06-05T05:50:18;27.77;;;19.63;;
21010;SDS011;10663;42.714;23.274;2023-06-05T05:51:50;22.65;;;17.92;;
21010;SDS011;10663;42.714;23.274;2023-06-05T05:53:21;20.63;;;18.02;;
21010;SDS011;10663;42.714;23.274;2023-06-05T05:54:52;24.25;;;18.60;;
21010;SDS011;10663;42.714;23.274;2023-06-05T05:56:22;23.48;;;17.75;;
21010;SDS011;10663;42.714;23.274;2023-06-05T05:57:54;21.40;;;18.00;;
21010;SDS011;10663;42.714;23.274;2023-06-05T05:59:25;20.98;;;17.70;;
21010;SDS011;10663;42.714;23.274;2023-06-05T06:00:56;19.27;;;17.17;;
21010;SDS011;10663;42.714;23.274;2023-06-05T06:02:27;19.63;;;16.63;;
21010;SDS011;10663;42.714;23.274;2023-06-05T06:03:58;19.48;;;15.52;;
21010;SDS011;10663;42.714;23.274;2023-06-05T06:05:29;16.83;;;15.07;;
21010;SDS011;10663;42.714;23.274;2023-06-05T06:07:00;19.00;;;14.13;;
21010;SDS011;10663;42.714;23.274;2023-06-05T06:08:32;18.08;;;15.32;;
21010;SDS011;10663;42.714;23.274;2023-06-05T06:10:03;15.65;;;14.02;;
21010;SDS011;10663;42.714;23.274;2023-06-05T06:11:37;19.30;;;15.23;;
21010;SDS011;10663;42.714;23.274;2023-06-05T06:13:08;17.25;;;13.63;;
21010;SDS011;10663;42.714;23.274;2023-06-05T06:14:40;14.77;;;13.25;;
21010;SDS011;10663;42.714;23.274;2023-06-05T06:16:12;16.13;;;13.57;;
21010;SDS011;10663;42.714;23.274;2023-06-05T06:17:43;15.23;;;13.52;;
21010;SDS011;10663;42.714;23.274;2023-06-05T06:19:13;15.55;;;12.88;;
21010;SDS011;10663;42.714;23.274;2023-06-05T06:20:44;16.85;;;13.10;;
21010;SDS011;10663;42.714;23.274;2023-06-05T06:22:16;16.30;;;12.77;;
21010;SDS011;10663;42.714;23.274;2023-06-05T06:23:46;14.30;;;12.65;;
21010;SDS011;10663;42.714;23.274;2023-06-05T06:25:19;16.30;;;12.02;;
21010;SDS011;10663;42.714;23.274;2023-06-05T06:26:51;14.38;;;12.30;;
21010;SDS011;10663;42.714;23.274;2023-06-05T06:28:22;13.48;;;11.75;;
21010;SDS011;10663;42.714;23.274;2023-06-05T06:29:54;14.13;;;11.63;;
21010;SDS011;10663;42.714;23.274;2023-06-05T06:31:24;13.38;;;11.98;;
21010;SDS011;10663;42.714;23.274;2023-06-05T06:32:56;15.00;;;12.85;;
21010;SDS011;10663;42.714;23.274;2023-06-05T06:34:30;13.35;;;11.40;;
21010;SDS011;10663;42.714;23.274;2023-06-05T06:36:03;14.02;;;11.45;;
21010;SDS011;10663;42.714;23.274;2023-06-05T06:37:35;15.50;;;11.43;;
21010;SDS011;10663;42.714;23.274;2023-06-05T06:39:07;12.98;;;11.48;;
21010;SDS011;10663;42.714;23.274;2023-06-05T06:40:38;12.80;;;10.80;;
21010;SDS011;10663;42.714;23.274;2023-06-05T06:42:10;13.57;;;11.43;;
21010;SDS011;10663;42.714;23.274;2023-06-05T06:43:44;13.80;;;11.65;;
21010;SDS011;10663;42.714;23.274;2023-06-05T06:45:15;13.38;;;11.98;;
21010;SDS011;10663;42.714;23.274;2023-06-05T06:46:47;13.77;;;12.35;;
21010;SDS011;10663;42.714;23.274;2023-06-05T06:48:18;14.13;;;12.07;;
21010;SDS011;10663;42.714;23.274;2023-06-05T06:49:49;13.88;;;11.52;;
21010;SDS011;10663;42.714;23.274;2023-06-05T06:51:20;14.50;;;12.00;;
21010;SDS011;10663;42.714;23.274;2023-06-05T06:52:52;13.57;;;11.88;;
21010;SDS011;10663;42.714;23.274;2023-06-05T06:54:23;14.07;;;11.75;;
21010;SDS011;10663;42.714;23.274;2023-06-05T06:55:56;13.07;;;11.55;;
21010;SDS011;10663;42.714;23.274;2023-06-05T06:57:27;14.32;;;11.82;;
21010;SDS011;10663;42.714;23.274;2023-06-05T06:58:58;14.35;;;11.85;;
21010;SDS011;10663;42.714;23.274;2023-06-05T07:00:29;14.10;;;12.60;;
21010;SDS011;10663;42.714;23.274;2023-06-05T07:02:10;14.80;;;12.45;;
21010;SDS011;10663;42.714;23.274;2023-06-05T07:03:43;14.45;;;12.95;;
21010;SDS011;10663;42.714;23.274;2023-06-05T07:05:14;15.45;;;12.98;;
21010;SDS011;10663;42.714;23.274;2023-06-05T07:06:46;14.13;;;12.40;;
21010;SDS011;10663;42.714;23.274;2023-06-05T07:08:18;14.65;;;12.95;;
21010;SDS011;10663;42.714;23.274;2023-06-05T07:09:49;15.57;;;13.57;;
21010;SDS011;10663;42.714;23.274;2023-06-05T07:11:23;15.52;;;13.93;;
21010;SDS011;10663;42.714;23.274;2023-06-05T07:12:57;15.57;;;13.68;;
21010;SDS011;10663;42.714;23.274;2023-06-05T07:14:28;18.33;;;14.60;;
21010;SDS011;10663;42.714;23.274;2023-06-05T07:15:59;15.77;;;14.07;;
21010;SDS011;10663;42.714;23.274;2023-06-05T07:17:30;19.50;;;14.25;;
21010;SDS011;10663;42.714;23.274;2023-06-05T07:19:00;16.70;;;13.80;;
21010;SDS011;10663;42.714;23.274;2023-06-05T07:20:31;17.42;;;15.45;;
21010;SDS011;10663;42.714;23.274;2023-06-05T07:22:02;15.95;;;14.25;;
21010;SDS011;10663;42.714;23.274;2023-06-05T07:23:37;19.27;;;15.55;;
21010;SDS011;10663;42.714;23.274;2023-06-05T07:25:07;17.42;;;15.60;;
21010;SDS011;10663;42.714;23.274;2023-06-05T07:26:39;16.02;;;14.32;;
21010;SDS011;10663;42.714;23.274;2023-06-05T07:28:10;18.23;;;15.05;;
21010;SDS011;10663;42.714;23.274;2023-06-05T07:29:46;20.42;;;17.30;;
21010;SDS011;10663;42.714;23.274;2023-06-05T07:31:19;18.27;;;15.52;;
21010;SDS011;10663;42.714;23.274;2023-06-05T07:32:51;18.25;;;15.90;;
21010;SDS011;10663;42.714;23.274;2023-06-05T07:34:23;17.15;;;14.30;;
21010;SDS011;10663;42.714;23.274;2023-06-05T07:35:55;18.70;;;16.05;;
21010;SDS011;10663;42.714;23.274;2023-06-05T07:37:25;18.88;;;16.70;;
21010;SDS011;10663;42.714;23.274;2023-06-05T07:38:56;18.38;;;14.73;;
21010;SDS011;10663;42.714;23.274;2023-06-05T07:40:27;18.52;;;15.57;;
21010;SDS011;10663;42.714;23.274;2023-06-05T07:41:58;16.47;;;14.53;;
21010;SDS011;10663;42.714;23.274;2023-06-05T07:43:29;17.33;;;14.40;;
21010;SDS011;10663;42.714;23.274;2023-06-05T07:45:00;18.58;;;15.55;;
21010;SDS011;10663;42.714;23.274;2023-06-05T07:46:40;18.13;;;14.95;;
21010;SDS011;10663;42.714;23.274;2023-06-05T07:48:12;19.15;;;14.82;;
21010;SDS011;10663;42.714;23.274;2023-06-05T07:49:43;16.83;;;14.00;;
21010;SDS011;10663;42.714;23.274;2023-06-05T07:51:15;18.50;;;14.57;;
21010;SDS011;10663;42.714;23.274;2023-06-05T07:52:50;18.27;;;14.73;;
21010;SDS011;10663;42.714;23.274;2023-06-05T07:54:21;17.07;;;14.00;;
21010;SDS011;10663;42.714;23.274;2023-06-05T07:55:52;17.27;;;14.05;;
21010;SDS011;10663;42.714;23.274;2023-06-05T07:57:23;16.63;;;13.68;;
21010;SDS011;10663;42.714;23.274;2023-06-05T07:58:55;16.58;;;14.75;;
21010;SDS011;10663;42.714;23.274;2023-06-05T08:00:26;17.85;;;14.27;;
21010;SDS011;10663;42.714;23.274;2023-06-05T08:01:57;16.13;;;14.30;;
21010;SDS011;10663;42.714;23.274;2023-06-05T08:03:31;15.40;;;13.43;;
21010;SDS011;10663;42.714;23.274;2023-06-05T08:05:02;15.67;;;13.40;;
21010;SDS011;10663;42.714;23.274;2023-06-05T08:06:33;17.42;;;13.70;;
21010;SDS011;10663;42.714;23.274;2023-06-05T08:08:08;16.08;;;13.70;;
21010;SDS011;10663;42.714;23.274;2023-06-05T08:09:40;15.90;;;14.30;;
21010;SDS011;10663;42.714;23.274;2023-06-05T08:11:11;15.30;;;13.05;;
21010;SDS011;10663;42.714;23.274;2023-06-05T08:12:41;15.80;;;13.80;;
21010;SDS011;10663;42.714;23.274;2023-06-05T08:14:12;14.07;;;12.57;;
21010;SDS011;10663;42.714;23.274;2023-06-05T08:15:43;15.15;;;13.55;;
21010;SDS011;10663;42.714;23.274;2023-06-05T08:17:14;15.63;;;13.32;;
21010;SDS011;10663;42.714;23.274;2023-06-05T08:18:45;15.97;;;13.67;;
21010;SDS011;10663;42.714;23.274;2023-06-05T08:20:16;17.03;;;14.20;;
21010;SDS011;10663;42.714;23.274;2023-06-05T08:21:50;16.63;;;13.53;;
21010;SDS011;10663;42.714;23.274;2023-06-05T08:23:22;21.27;;;15.13;;
21010;SDS011;10663;42.714;23.274;2023-06-05T08:24:53;16.27;;;13.45;;
21010;SDS011;10663;42.714;23.274;2023-06-05T08:26:25;16.05;;;13.93;;
21010;SDS011;10663;42.714;23.274;2023-06-05T08:27:56;16.05;;;13.52;;
21010;SDS011;10663;42.714;23.274;2023-06-05T08:29:27;17.80;;;14.95;;
21010;SDS011;10663;42.714;23.274;2023-06-05T08:30:59;16.30;;;13.63;;
21010;SDS011;10663;42.714;23.274;2023-06-05T08:32:30;16.05;;;13.77;;
21010;SDS011;10663;42.714;23.274;2023-06-05T08:34:01;16.42;;;13.95;;
21010;SDS011;10663;42.714;23.274;2023-06-05T08:35:33;15.00;;;13.40;;
21010;SDS011;10663;42.714;23.274;2023-06-05T08:37:04;14.00;;;12.50;;
21010;SDS011;10663;42.714;23.274;2023-06-05T08:38:35;16.08;;;13.50;;
21010;SDS011;10663;42.714;23.274;2023-06-05T08:40:06;14.77;;;12.90;;
21010;SDS011;10663;42.714;23.274;2023-06-05T08:41:40;15.23;;;13.63;;
21010;SDS011;10663;42.714;23.274;2023-06-05T08:43:13;15.65;;;13.40;;
21010;SDS011;10663;42.714;23.274;2023-06-05T08:44:45;15.85;;;12.55;;
21010;SDS011;10663;42.714;23.274;2023-06-05T08:46:17;14.85;;;12.30;;
21010;SDS011;10663;42.714;23.274;2023-06-05T08:47:51;15.57;;;12.60;;
21010;SDS011;10663;42.714;23.274;2023-06-05T08:49:25;17.25;;;14.05;;
21010;SDS011;10663;42.714;23.274;2023-06-05T08:50:59;15.38;;;13.55;;
21010;SDS011;10663;42.714;23.274;2023-06-05T08:52:34;16.27;;;13.50;;
21010;SDS011;10663;42.714;23.274;2023-06-05T08:54:09;15.48;;;12.68;;
21010;SDS011;10663;42.714;23.274;2023-06-05T08:55:44;14.73;;;12.13;;